20:14
Airports
History
Links
Donate
Help me keep this website running!
Information on this page is community maintained and may be outdated or inaccurate and is intended for simulator navigating and reference only!
Always use approved charts for navigating.
SDYJ
Jose Martins da Silva
Jose Martins da Silva (SDYJ)
Regente Feijó, São Paulo, Brazil (19570)
4
Lat/Lng:22° 13' 32" S / 51° 20' 53" W
-22.225556 / -51.348056
Elevation:1663'ft 507mMSL
ID / ICAO:SDYJ
Runways:1
Longest:(08-26) 804.7m 2,640ft Dirt
Controlled:No
Distance To
Airport ID:
Nearby WeatherUpdated 09-29-16 11:00 GMT
Nearby weather at SBDN, Presidente Prudente located 6.0 nautical miles from SDYJ
Altimeter: 30.00
Visibility: 6.2 statute miles
Wind: 5 knots (120°)
Temp: 23°c 73°f
Humidity: 31.1%

METAR: SBDN 291100Z 12005KT 060V160 CAVOK 23/05 Q1016

(Powered by phpweather)
Runway 08 / 26
Dimensions:804.7 x 20.1m 2640' x 66'ft
Surface:Dirt
Runway 08 [A]Runway 26 [B]
Heading:059°TH 239°TH
Lat:
Lng:
22° 13' 38.55"S
51° 21' 5.24"W
22° 13' 25.45"S
51° 20' 40.76"W
Google Map
Nearby Airports
(C) Presidente Prudente 6.0 NM
SBDN (WX) NW 305°
4 Estancia Machado 10.9 NM
SDEM NW 322°
4 Elisa Camargo de Arruda Botelho 18.2 NM
SIIG ESE 119°
(U) FAZENDA NOVA CALIFORNIA 19.1 NM
SDEG SSE 150°
4 Atena 21.0 NM
SDPC ENE 76°
4 Fazenda Nova Damasco 21.2 NM
SDND SSW 213°
4 Fazenda Nova Floresta 24.8 NM
SDQG NNE 24°
VFR Chart
Flight Planning at SkyVector.com